createdAt,value
2023-03-16T00:00:13.757Z,95.24
2023-03-16T00:02:41.881Z,95.29
2023-03-16T00:05:10.200Z,96.22
2023-03-16T00:07:36.945Z,96.09
2023-03-16T00:10:03.674Z,95.67
2023-03-16T00:12:30.248Z,95.84
2023-03-16T00:14:56.756Z,96.20
2023-03-16T00:17:23.795Z,96.84
2023-03-16T00:19:56.107Z,96.04
2023-03-16T00:22:24.635Z,96.11
2023-03-16T00:24:52.865Z,96.09
2023-03-16T00:27:22.928Z,96.10
2023-03-16T00:29:55.940Z,96.24
2023-03-16T00:32:28.598Z,96.17
2023-03-16T00:34:55.873Z,96.60
2023-03-16T00:37:24.163Z,96.02
2023-03-16T00:39:51.945Z,96.63
2023-03-16T00:42:20.180Z,96.64
2023-03-16T00:44:46.883Z,96.50
2023-03-16T00:47:17.159Z,96.73
2023-03-16T01:10:54.963Z,98.21
2023-03-16T01:13:22.242Z,98.26
2023-03-16T01:15:52.533Z,97.36
2023-03-16T01:18:20.287Z,97.51
2023-03-16T01:20:50.755Z,97.52
2023-03-16T01:23:18.481Z,97.67
2023-03-16T01:25:52.806Z,97.94
2023-03-16T01:28:24.744Z,97.81
2023-03-16T01:30:58.402Z,97.52
2023-03-16T01:33:26.327Z,97.02
2023-03-16T01:35:58.653Z,97.97
2023-03-16T01:38:26.009Z,97.08
2023-03-16T01:40:53.910Z,97.21
2023-03-16T01:43:31.732Z,97.22
2023-03-16T01:46:04.703Z,97.42
2023-03-16T01:48:37.204Z,97.60
2023-03-16T01:51:10.205Z,97.32
2023-03-16T01:53:38.529Z,96.89
2023-03-16T01:56:08.438Z,96.95
2023-03-16T01:58:35.758Z,97.63
2023-03-16T02:01:02.681Z,97.21
2023-03-16T02:03:30.083Z,96.99
2023-03-16T02:06:05.189Z,97.09
2023-03-16T02:08:32.266Z,97.06
2023-03-16T02:10:58.820Z,97.43
2023-03-16T02:13:26.081Z,97.35
2023-03-16T02:15:53.573Z,97.03
2023-03-16T02:18:23.006Z,97.25
2023-03-16T02:21:03.043Z,97.19
2023-03-16T02:23:29.702Z,97.65
2023-03-16T02:26:04.153Z,97.71
2023-03-16T02:29:00.314Z,96.86
2023-03-16T02:31:27.174Z,97.49
2023-03-16T02:33:54.220Z,97.41
2023-03-16T02:36:20.963Z,97.53
2023-03-16T02:38:47.646Z,97.40
2023-03-16T02:41:16.451Z,97.48
2023-03-16T02:44:29.622Z,97.21
2023-03-16T02:46:58.498Z,98.42
2023-03-16T02:49:35.040Z,98.38
2023-03-16T02:52:01.656Z,97.98
2023-03-16T02:54:28.124Z,99.44
2023-03-16T02:56:54.724Z,99.34
2023-03-16T02:59:21.515Z,98.73
2023-03-16T03:01:48.172Z,98.53
2023-03-16T03:04:14.871Z,98.52
2023-03-16T03:06:41.750Z,98.02
2023-03-16T03:09:11.411Z,99.15
2023-03-16T03:11:38.223Z,99.23
2023-03-16T03:14:05.106Z,98.52
2023-03-16T03:16:32.056Z,99.57
2023-03-16T03:18:59.319Z,99.22
2023-03-16T03:21:28.308Z,99.44
2023-03-16T03:23:55.079Z,100.00
2023-03-16T03:26:21.678Z,99.63
2023-03-16T03:28:48.194Z,99.35
2023-03-16T03:31:20.020Z,99.32
2023-03-16T03:33:46.632Z,98.94
2023-03-16T03:36:13.986Z,99.64
2023-03-16T03:38:40.657Z,99.64
2023-03-16T03:41:08.029Z,99.79
2023-03-16T03:43:35.123Z,99.69
2023-03-16T03:46:02.848Z,100.00
2023-03-16T03:48:29.535Z,100.00
2023-03-16T03:50:56.051Z,100.00
2023-03-16T03:53:22.546Z,99.83
2023-03-16T03:55:49.889Z,99.70
2023-03-16T03:58:16.605Z,99.67
2023-03-16T04:00:43.296Z,99.45
2023-03-16T04:03:09.930Z,99.19
2023-03-16T04:05:36.544Z,99.56
2023-03-16T04:08:03.030Z,99.13
2023-03-16T04:10:30.640Z,99.78
2023-03-16T04:12:58.306Z,98.97
2023-03-16T04:15:25.382Z,98.31
2023-03-16T04:17:52.671Z,99.04
2023-03-16T04:20:20.050Z,98.85
2023-03-16T04:22:47.412Z,99.27
2023-03-16T04:25:15.985Z,99.41
2023-03-16T04:27:42.924Z,98.97
2023-03-16T04:30:13.410Z,99.44
2023-03-16T04:32:40.598Z,98.82
2023-03-16T04:35:07.613Z,98.54
2023-03-16T04:37:34.637Z,98.07
2023-03-16T04:40:04.617Z,99.03
2023-03-16T04:42:31.485Z,98.99
2023-03-16T04:44:57.942Z,98.44
2023-03-16T04:47:24.362Z,99.49
2023-03-16T04:49:50.786Z,99.39
2023-03-16T04:52:17.225Z,99.66
2023-03-16T04:54:43.768Z,99.33
2023-03-16T04:57:10.276Z,99.86
2023-03-16T04:59:36.757Z,99.81
2023-03-16T05:02:04.074Z,99.17
2023-03-16T05:04:30.690Z,99.03
2023-03-16T05:06:57.603Z,99.00
2023-03-16T05:09:24.145Z,98.43
2023-03-16T05:11:50.819Z,99.03
2023-03-16T05:14:17.256Z,98.91
2023-03-16T05:16:43.860Z,99.29
2023-03-16T05:19:10.372Z,99.32
2023-03-16T05:21:38.724Z,99.33
2023-03-16T05:24:06.053Z,99.44
2023-03-16T05:26:32.590Z,99.46
2023-03-16T05:28:59.096Z,100.00
2023-03-16T05:31:32.643Z,99.87
2023-03-16T05:33:59.620Z,100.00
2023-03-16T05:36:26.156Z,99.15
2023-03-16T05:38:52.754Z,99.42
2023-03-16T05:41:21.405Z,98.60
2023-03-16T05:43:47.952Z,99.52
2023-03-16T05:46:14.463Z,99.19
2023-03-16T05:48:41.142Z,99.40
2023-03-16T05:51:07.626Z,99.28
2023-03-16T05:53:35.513Z,98.57
2023-03-16T05:56:02.550Z,98.54
2023-03-16T05:58:29.001Z,99.58
2023-03-16T06:00:55.561Z,100.00
2023-03-16T06:03:22.872Z,100.00
2023-03-16T06:05:49.553Z,100.00
2023-03-16T06:08:16.039Z,100.00
2023-03-16T06:10:42.429Z,97.14
2023-03-16T06:13:08.866Z,88.07
2023-03-16T06:15:35.297Z,85.10
2023-03-16T06:18:01.931Z,73.96
2023-03-16T06:20:28.654Z,68.78
2023-03-16T06:22:55.233Z,70.05
2023-03-16T06:25:21.843Z,62.28
2023-03-16T06:27:49.543Z,61.12
2023-03-16T06:30:16.332Z,62.54
2023-03-16T06:32:43.097Z,58.88
2023-03-16T06:35:10.320Z,62.71
2023-03-16T06:37:37.193Z,61.28
2023-03-16T06:40:04.498Z,57.00
2023-03-16T06:42:30.961Z,53.63
2023-03-16T06:44:57.509Z,56.10
2023-03-16T06:47:24.106Z,52.88
2023-03-16T06:49:51.836Z,53.04
2023-03-16T06:52:18.294Z,53.89
2023-03-16T06:54:44.855Z,54.81
2023-03-16T06:57:11.657Z,53.06
2023-03-16T06:59:38.196Z,52.26
2023-03-16T07:02:04.691Z,52.18
2023-03-16T07:04:31.217Z,50.36
2023-03-16T07:06:57.747Z,48.99
2023-03-16T07:09:24.267Z,53.48
2023-03-16T07:11:52.646Z,52.22
2023-03-16T07:14:19.982Z,51.93
2023-03-16T07:16:46.511Z,55.57
2023-03-16T07:19:12.985Z,50.95
2023-03-16T07:21:40.800Z,47.96
2023-03-16T07:24:09.100Z,51.32
2023-03-16T07:26:35.664Z,51.78
2023-03-16T07:29:06.267Z,50.70
2023-03-16T07:31:34.550Z,50.30
2023-03-16T07:34:02.486Z,49.14
2023-03-16T07:36:29.300Z,50.22
2023-03-16T07:38:55.906Z,48.92
2023-03-16T07:41:22.358Z,49.12
2023-03-16T07:43:48.893Z,45.93
2023-03-16T07:46:15.596Z,44.24
2023-03-16T07:48:43.670Z,45.88
2023-03-16T07:51:13.841Z,45.67
2023-03-16T07:53:40.735Z,48.59
2023-03-16T07:56:08.005Z,47.01
2023-03-16T07:58:34.570Z,45.33
2023-03-16T08:01:01.639Z,42.39
2023-03-16T08:03:29.979Z,43.01
2023-03-16T08:05:56.495Z,44.07
2023-03-16T08:08:23.556Z,45.11
2023-03-16T08:10:52.741Z,43.74
2023-03-16T08:13:20.429Z,42.98
2023-03-16T08:15:58.371Z,40.79
2023-03-16T08:18:30.002Z,40.02
2023-03-16T08:20:57.463Z,39.26
2023-03-16T08:23:25.212Z,36.15
2023-03-16T08:25:56.130Z,40.54
2023-03-16T08:28:22.886Z,34.52
2023-03-16T08:30:51.074Z,34.02
2023-03-16T08:33:18.024Z,33.47
2023-03-16T08:35:44.846Z,33.24
2023-03-16T08:38:12.128Z,32.58
2023-03-16T08:40:42.087Z,35.34
2023-03-16T08:43:08.884Z,37.71
2023-03-16T08:45:35.457Z,34.17
2023-03-16T08:48:02.096Z,32.87
2023-03-16T08:50:28.806Z,35.72
2023-03-16T08:52:55.440Z,33.99
2023-03-16T08:55:21.950Z,38.40
2023-03-16T08:57:48.787Z,36.39
2023-03-16T09:00:16.083Z,34.25
2023-03-16T09:02:43.437Z,32.56
2023-03-16T09:05:11.511Z,29.31
2023-03-16T09:07:39.360Z,30.58
2023-03-16T09:10:07.476Z,30.46
2023-03-16T09:12:37.986Z,31.09
2023-03-16T09:15:05.755Z,27.51
2023-03-16T09:17:32.341Z,31.21
2023-03-16T09:20:05.507Z,29.29
2023-03-16T09:22:36.386Z,27.78
2023-03-16T09:25:07.207Z,26.39
2023-03-16T09:27:34.011Z,27.18
2023-03-16T09:30:01.854Z,25.64
2023-03-16T09:32:28.555Z,26.00
2023-03-16T09:34:55.353Z,27.50
2023-03-16T09:37:22.408Z,30.07
2023-03-16T09:39:49.580Z,28.89
2023-03-16T09:42:34.991Z,28.65
2023-03-16T09:45:34.351Z,30.17
2023-03-16T09:48:03.914Z,28.22
2023-03-16T09:50:47.799Z,29.06
2023-03-16T09:53:25.897Z,25.81
2023-03-16T09:55:55.300Z,26.37
2023-03-16T09:58:22.702Z,26.83
2023-03-16T10:01:09.944Z,25.97
2023-03-16T10:04:01.817Z,28.71
2023-03-16T10:06:28.650Z,31.15
2023-03-16T10:09:04.136Z,31.59
2023-03-16T10:11:33.888Z,32.12
2023-03-16T10:14:14.022Z,29.15
2023-03-16T10:16:48.557Z,28.87
2023-03-16T10:19:42.510Z,26.76
2023-03-16T10:22:34.912Z,26.81
2023-03-16T10:25:07.993Z,29.56
2023-03-16T10:27:36.892Z,29.16
2023-03-16T10:30:14.801Z,29.84
2023-03-16T10:32:41.440Z,28.91
2023-03-16T10:35:45.690Z,30.10
2023-03-16T10:38:40.953Z,32.67
2023-03-16T10:41:22.706Z,32.29
2023-03-16T10:44:08.548Z,30.33
2023-03-16T10:46:48.583Z,29.72
2023-03-16T10:49:48.757Z,27.79
2023-03-16T10:52:34.531Z,27.77
2023-03-16T10:55:07.512Z,29.08
2023-03-16T10:57:41.451Z,29.02
2023-03-16T11:00:15.316Z,30.35
2023-03-16T11:02:43.037Z,28.88
2023-03-16T11:05:24.878Z,29.55
2023-03-16T11:08:10.676Z,30.12
2023-03-16T11:10:49.432Z,29.18
2023-03-16T11:13:20.642Z,26.48
2023-03-16T11:16:00.286Z,27.47
2023-03-16T11:18:36.987Z,29.25
2023-03-16T11:21:09.522Z,30.04
2023-03-16T11:23:39.379Z,27.69
2023-03-16T11:26:13.301Z,27.59
2023-03-16T11:28:50.617Z,27.34
2023-03-16T11:31:27.615Z,27.70
2023-03-16T11:33:57.392Z,29.38
2023-03-16T11:36:27.996Z,28.84
2023-03-16T11:39:20.443Z,27.62
2023-03-16T11:41:59.014Z,28.03
2023-03-16T11:44:33.851Z,29.12
2023-03-16T11:47:17.817Z,30.13
2023-03-16T11:50:07.675Z,29.87
2023-03-16T11:52:56.225Z,28.06
2023-03-16T11:55:25.907Z,28.45
2023-03-16T11:58:20.496Z,27.45
2023-03-16T12:00:57.888Z,28.72
2023-03-16T12:03:34.096Z,28.86
2023-03-16T12:06:34.968Z,27.23
2023-03-16T12:09:16.586Z,26.46
2023-03-16T12:12:02.092Z,28.62
2023-03-16T12:14:42.691Z,28.39
2023-03-16T12:17:16.730Z,29.43
2023-03-16T12:19:50.716Z,29.17
2023-03-16T12:22:22.641Z,28.63
2023-03-16T12:24:50.431Z,26.53
2023-03-16T12:27:20.578Z,28.24
2023-03-16T12:29:56.987Z,28.82
2023-03-16T12:32:36.593Z,29.63
2023-03-16T12:35:16.643Z,30.41
2023-03-16T12:38:04.512Z,30.98
2023-03-16T12:40:51.130Z,29.10
2023-03-16T12:43:39.357Z,30.94
2023-03-16T12:46:14.368Z,31.87
2023-03-16T12:48:49.273Z,29.46
2023-03-16T12:51:16.120Z,29.34
2023-03-16T12:53:53.310Z,31.13
2023-03-16T12:56:29.550Z,31.06
2023-03-16T12:59:02.080Z,31.37
2023-03-16T13:01:42.591Z,30.30
2023-03-16T13:04:21.804Z,30.19
2023-03-16T13:06:51.043Z,31.54
2023-03-16T13:09:21.956Z,29.38
2023-03-16T13:11:53.356Z,29.43
2023-03-16T13:14:38.558Z,29.35
2023-03-16T13:17:16.242Z,30.85
2023-03-16T13:19:47.933Z,31.57
2023-03-16T13:22:26.176Z,30.83
2023-03-16T13:25:12.526Z,29.72
2023-03-16T13:27:40.696Z,30.93
2023-03-16T13:30:32.668Z,30.31
2023-03-16T13:33:30.089Z,30.84
2023-03-16T13:35:57.906Z,30.57
2023-03-16T13:38:27.507Z,30.41
2023-03-16T13:41:02.601Z,29.77
2023-03-16T13:43:32.898Z,29.09
2023-03-16T13:45:59.979Z,27.99
2023-03-16T13:48:26.545Z,29.88
2023-03-16T13:50:55.521Z,30.40
2023-03-16T13:53:24.976Z,31.00
2023-03-16T13:55:52.820Z,31.87
2023-03-16T13:58:23.852Z,31.90
2023-03-16T14:00:55.393Z,32.12
2023-03-16T14:03:22.520Z,31.40
2023-03-16T14:05:49.542Z,32.76
2023-03-16T14:08:19.613Z,33.35
2023-03-16T14:10:46.883Z,34.82
2023-03-16T14:13:29.074Z,34.40
2023-03-16T14:15:58.216Z,33.76
2023-03-16T14:18:32.478Z,34.51
2023-03-16T14:20:58.999Z,34.06
2023-03-16T14:23:35.768Z,33.93
2023-03-16T14:26:04.974Z,33.42
2023-03-16T14:28:33.698Z,32.40
2023-03-16T14:31:10.343Z,32.64
2023-03-16T14:33:41.340Z,32.44
2023-03-16T14:36:19.056Z,33.88
2023-03-16T14:38:48.750Z,33.74
2023-03-16T14:41:23.094Z,33.83
2023-03-16T14:43:56.280Z,33.49
2023-03-16T14:46:31.592Z,32.56
2023-03-16T14:49:28.045Z,33.47
2023-03-16T14:51:59.050Z,33.85
2023-03-16T14:54:26.611Z,33.74
2023-03-16T14:56:55.456Z,33.99
2023-03-16T14:59:22.191Z,34.77
2023-03-16T15:01:49.701Z,35.18
2023-03-16T15:04:20.829Z,35.24
2023-03-16T15:06:47.424Z,35.15
2023-03-16T15:09:31.487Z,34.53
2023-03-16T15:11:58.119Z,34.37
2023-03-16T15:14:43.287Z,34.53
2023-03-16T15:17:11.001Z,35.03
2023-03-16T15:19:37.669Z,37.14
2023-03-16T15:22:04.916Z,37.06
2023-03-16T15:24:33.243Z,37.29
2023-03-16T15:27:00.660Z,36.97
2023-03-16T15:29:27.764Z,36.84
2023-03-16T15:31:54.744Z,36.62
2023-03-16T15:34:22.742Z,36.80
2023-03-16T15:36:49.628Z,38.03
2023-03-16T15:39:25.251Z,37.13
2023-03-16T15:41:51.950Z,37.90
2023-03-16T15:44:18.689Z,38.87
2023-03-16T15:46:48.210Z,39.11
2023-03-16T15:49:15.436Z,38.53
2023-03-16T15:51:42.153Z,38.66
2023-03-16T15:54:09.793Z,39.09
2023-03-16T15:56:52.699Z,38.99
2023-03-16T15:59:22.306Z,38.17
2023-03-16T16:01:49.532Z,39.09
2023-03-16T16:04:24.373Z,38.67
2023-03-16T16:06:55.066Z,39.96
2023-03-16T16:09:22.346Z,39.89
2023-03-16T16:11:50.478Z,40.21
2023-03-16T16:14:20.760Z,40.06
2023-03-16T16:16:48.022Z,40.42
2023-03-16T16:19:16.017Z,40.75
2023-03-16T16:21:43.964Z,40.33
2023-03-16T16:24:10.988Z,40.39
2023-03-16T16:26:49.882Z,41.68
2023-03-16T16:29:22.405Z,42.08
2023-03-16T16:31:49.122Z,42.43
2023-03-16T16:34:18.217Z,42.85
2023-03-16T16:36:45.119Z,42.41
2023-03-16T16:39:11.915Z,41.90
2023-03-16T16:41:39.156Z,42.33
2023-03-16T16:44:16.894Z,43.12
2023-03-16T16:46:44.105Z,42.99
2023-03-16T16:49:23.709Z,43.93
2023-03-16T16:52:56.529Z,44.33
2023-03-16T17:01:03.561Z,44.74
2023-03-16T17:03:59.041Z,44.85
2023-03-16T17:10:27.627Z,45.41
2023-03-16T17:13:21.290Z,45.91
2023-03-16T17:16:07.804Z,46.04
2023-03-16T17:18:55.327Z,46.21
2023-03-16T18:09:54.201Z,49.78
2023-03-16T18:12:21.138Z,50.05
2023-03-16T18:14:48.124Z,50.48
2023-03-16T18:17:28.198Z,49.98
2023-03-16T18:19:55.887Z,49.67
2023-03-16T18:22:24.798Z,49.84
2023-03-16T18:24:54.003Z,49.65
2023-03-16T18:27:21.319Z,48.99
2023-03-16T18:29:48.206Z,49.45
2023-03-16T18:32:26.046Z,48.68
2023-03-16T18:34:54.056Z,49.31
2023-03-16T18:37:24.407Z,48.81
2023-03-16T18:39:52.680Z,48.85
2023-03-16T18:42:24.509Z,49.21
2023-03-16T18:44:51.763Z,48.20
2023-03-16T18:47:20.940Z,48.00
2023-03-16T18:49:49.235Z,48.03
2023-03-16T18:52:30.624Z,47.72
2023-03-16T18:54:58.431Z,48.46
2023-03-16T18:57:28.072Z,48.15
2023-03-16T18:59:55.427Z,48.72
2023-03-16T19:02:29.051Z,48.72
2023-03-16T19:05:00.551Z,48.83
2023-03-16T19:07:37.877Z,48.96
2023-03-16T19:10:22.724Z,49.39
2023-03-16T19:12:49.855Z,49.22
2023-03-16T19:15:19.904Z,48.77
2023-03-16T19:17:47.730Z,49.00
2023-03-16T19:20:16.816Z,49.77
2023-03-16T19:22:46.022Z,49.40
2023-03-16T19:25:25.063Z,49.48
2023-03-16T19:27:52.077Z,49.49
2023-03-16T19:30:23.274Z,49.55
2023-03-16T19:32:54.393Z,49.95
2023-03-16T19:35:27.313Z,49.92
2023-03-16T19:38:00.799Z,49.95
2023-03-16T19:40:33.258Z,50.75
2023-03-16T19:43:00.635Z,50.35
2023-03-16T19:45:35.841Z,51.25
2023-03-16T19:48:10.162Z,50.66
2023-03-16T19:50:37.124Z,50.70
2023-03-16T19:53:06.377Z,51.15
2023-03-16T19:55:33.154Z,51.17
2023-03-16T19:58:03.004Z,51.59
2023-03-16T20:00:31.144Z,50.78
2023-03-16T20:02:58.994Z,51.55
2023-03-16T20:05:28.326Z,51.16
2023-03-16T20:07:59.711Z,51.62
2023-03-16T20:10:30.242Z,51.69
2023-03-16T20:12:59.677Z,51.91
2023-03-16T20:15:33.638Z,51.94
2023-03-16T20:18:02.160Z,51.96
2023-03-16T20:20:31.630Z,51.56
2023-03-16T20:22:59.737Z,51.90
2023-03-16T20:25:31.478Z,51.47
2023-03-16T20:28:01.985Z,52.43
2023-03-16T20:30:31.843Z,51.45
2023-03-16T20:33:16.709Z,51.39
2023-03-16T20:35:47.023Z,51.20
2023-03-16T20:38:27.929Z,51.29
2023-03-16T20:41:34.161Z,51.36
2023-03-16T20:46:50.600Z,51.97
2023-03-16T20:49:25.280Z,52.81
2023-03-16T20:51:53.305Z,52.22
2023-03-16T20:54:21.155Z,52.91
2023-03-16T20:56:48.329Z,52.43
2023-03-16T20:59:23.970Z,52.99
2023-03-16T21:01:52.120Z,52.44
2023-03-16T21:04:29.760Z,52.77
2023-03-16T21:06:56.932Z,52.51
2023-03-16T21:09:23.679Z,51.78
2023-03-16T21:11:50.545Z,52.61
2023-03-16T21:14:22.091Z,52.86
2023-03-16T21:16:50.533Z,52.54
2023-03-16T21:19:19.692Z,51.99
2023-03-16T21:21:46.531Z,52.44
2023-03-16T21:24:13.224Z,52.17
2023-03-16T21:26:41.961Z,53.04
2023-03-16T21:29:13.571Z,53.18
2023-03-16T21:31:42.919Z,52.71
2023-03-16T21:34:27.524Z,52.41
2023-03-16T21:36:54.408Z,52.96
2023-03-16T21:39:25.563Z,52.67
2023-03-16T21:41:52.573Z,52.43
2023-03-16T21:44:19.624Z,52.52
2023-03-16T21:46:47.472Z,52.57
2023-03-16T21:49:14.612Z,52.06
2023-03-16T21:51:43.339Z,53.24
2023-03-16T21:54:16.916Z,52.94
2023-03-16T21:56:45.166Z,52.21
2023-03-16T21:59:12.283Z,52.24
2023-03-16T22:01:50.969Z,52.93
2023-03-16T22:04:25.099Z,52.10
2023-03-16T22:06:52.162Z,53.09
2023-03-16T22:09:20.745Z,53.16
2023-03-16T22:11:47.385Z,53.65
2023-03-16T22:14:14.019Z,53.08
2023-03-16T22:16:41.017Z,53.32
2023-03-16T22:19:11.666Z,53.50
2023-03-16T22:21:40.973Z,52.71
2023-03-16T22:24:23.522Z,53.12
2023-03-16T22:26:51.197Z,53.58
2023-03-16T22:29:25.440Z,52.79
2023-03-16T22:31:55.633Z,52.75
2023-03-16T22:34:43.137Z,52.24
2023-03-16T22:37:11.057Z,52.80
2023-03-16T22:39:38.718Z,52.44
2023-03-16T22:42:37.415Z,52.59
2023-03-16T22:45:14.429Z,51.84
2023-03-16T22:47:41.944Z,52.97
2023-03-16T22:50:13.856Z,52.44
2023-03-16T22:52:40.505Z,51.88
2023-03-16T22:55:08.783Z,52.42
2023-03-16T22:57:35.431Z,51.89
2023-03-16T23:00:11.115Z,52.43
2023-03-16T23:02:38.799Z,52.53
2023-03-16T23:05:19.489Z,52.39
2023-03-16T23:07:46.766Z,52.03
2023-03-16T23:10:18.191Z,51.33
2023-03-16T23:12:49.444Z,50.91
2023-03-16T23:15:21.202Z,50.67
2023-03-16T23:17:47.902Z,50.97
2023-03-16T23:20:23.783Z,50.67
2023-03-16T23:22:51.115Z,49.33
2023-03-16T23:25:18.540Z,49.98
2023-03-16T23:27:45.208Z,49.87
2023-03-16T23:30:22.045Z,48.95
2023-03-16T23:32:50.210Z,49.25
2023-03-16T23:35:23.596Z,48.54
2023-03-16T23:37:52.113Z,48.53
2023-03-16T23:40:19.699Z,48.14
2023-03-16T23:42:47.729Z,47.86
2023-03-16T23:45:32.627Z,47.40
2023-03-16T23:48:01.182Z,47.78
2023-03-16T23:50:33.212Z,47.93
2023-03-16T23:53:00.013Z,47.60
2023-03-16T23:55:26.650Z,48.07
2023-03-16T23:57:54.732Z,47.99
